Latest Weather Observations for Thredbo Top Station

IDN60901

Issued at 10:32 pm EDT Friday 27 February 2015 (issued every 10 minutes, with the page automatically refreshed every 10 minutes)

About weather observations | Map of Canberra area stations | Latest observations for Canberra area | Other Formats
Station Details ID: 071032 Name: THREDBO AWS Lat: -36.49 Lon: 148.29 Height: 1957.0 m
Data from the previous 72 hours. | See also: Recent months at Thredbo Top Station
Date/Time
EDT
Tmp

°C
App
Tmp
°C
Dew
Point
°C
Rel
Hum
%
Delta-T

°C
Wind Press
QNH
hPa
Press
MSL
hPa
Rain
since
9 am
mm
Dir
 
Spd
km/h
Gust
km/h
Spd
kts
Gust
kts
27/10:30pm 8.7 6.0 5.6 81 1.5 NNW 9 13 5 7 1015.4 1011.3 0.0
27/10:00pm 8.5 3.8 6.1 85 1.2 N 20 24 11 13 1015.1 1011.1 0.0
27/09:30pm 10.0 6.5 7.1 82 1.5 N 15 17 8 9 1015.0 1011.0 0.0
27/09:00pm 8.3 5.4 6.4 88 0.9 NW 11 15 6 8 1015.4 1011.3 0.0
27/08:30pm 8.5 5.5 6.1 85 1.2 NW 11 13 6 7 1015.0 1011.0 0.0
27/08:00pm 8.5 5.1 6.0 84 1.2 NW 13 15 7 8 1014.6 1010.5 0.0
27/07:30pm 10.4 7.9 6.4 76 2.0 NW 9 13 5 7 1013.9 1009.8 0.0
27/07:00pm 12.6 9.7 6.6 67 3.1 WNW 11 17 6 9 1013.6 1009.6 0.0
27/06:30pm 13.4 9.3 6.3 62 3.7 NW 17 22 9 12 1013.5 1009.4 0.0
27/05:30pm 13.5 9.1 7.5 67 3.2 NNW 20 30 11 16 1013.4 1009.3 0.0
27/05:00pm 13.7 9.1 8.3 70 2.9 NNW 22 33 12 18 1013.3 1009.2 0.0
27/04:30pm 14.0 8.9 7.5 65 3.4 NW 24 39 13 21 1013.1 1009.0 0.0
27/04:00pm 14.1 8.3 8.1 67 3.2 NW 28 37 15 20 1013.2 1009.1 0.0
27/03:30pm 14.7 9.2 6.0 56 4.5 NW 24 37 13 20 1013.1 1009.0 0.0
27/03:00pm 14.3 9.0 8.3 67 3.2 NW 26 39 14 21 1013.4 1009.3 0.0
27/02:30pm 13.7 7.0 7.2 65 3.4 NW 32 41 17 22 1013.6 1009.6 0.0
27/02:00pm 14.4 8.0 8.4 67 3.2 WNW 32 46 17 25 1013.8 1009.7 0.0
27/01:30pm 13.4 6.6 7.8 69 3.0 NW 33 48 18 26 1013.5 1009.4 0.0
27/01:00pm 13.2 7.1 8.1 71 2.7 NW 30 48 16 26 1014.1 1010.0 0.0
27/12:57pm 12.7 6.4 7.4 70 2.8 NW 30 48 16 26 1014.1 1010.0 0.0
27/12:30pm 12.6 5.5 7.9 73 2.5 NW 35 48 19 26 1014.3 1010.3 0.0
27/12:00pm 12.0 3.3 7.7 75 2.3 NW 43 57 23 31 1014.7 1010.6 0.0
27/11:30am 12.2 3.1 5.8 65 3.2 NW 43 57 23 31 1014.4 1010.4 0.0
27/11:12am 11.8 4.0 6.5 70 2.7 NW 37 56 20 30 1014.2 1010.1 0.0
27/11:00am 11.5 2.9 6.4 71 2.6 NW 41 57 22 31 1014.2 1010.1 0.0
27/10:59am 11.4 2.7 5.9 69 2.8 NW 41 59 22 32 1014.2 1010.1 0.0
27/10:30am 11.1 0.7 6.0 71 2.6 NW 50 61 27 33 1013.9 1009.8 0.0
27/10:00am 10.7 -0.2 5.5 70 2.6 NW 52 63 28 34 1013.5 1009.4 0.0
27/09:30am 10.7 -0.7 6.6 76 2.1 NW 56 65 30 35 1013.4 1009.3 0.0
27/09:00am 10.3 0.4 6.5 77 1.9 NW 48 59 26 32 1013.3 1009.2 0.0
27/08:30am 9.7 0.3 7.1 84 1.3 NW 46 54 25 29 1013.1 1009.0 0.0
27/08:00am 9.0 -0.2 7.9 93 0.6 NW 46 56 25 30 1013.1 1009.0 0.0
27/07:30am 8.9 0.7 8.0 94 0.5 NW 41 54 22 29 1013.1 1009.0 0.0
27/07:00am 8.6 1.8 7.8 95 0.4 NW 33 44 18 24 1013.2 1009.1 0.0
27/06:30am 9.1 2.6 8.3 95 0.4 NNW 32 43 17 23 1013.1 1009.0 0.0
27/05:30am 9.4 4.2 8.8 96 0.3 NNW 26 37 14 20 1013.2 1009.1 0.0
27/05:00am 9.5 4.7 8.9 96 0.3 NNW 24 33 13 18 1013.3 1009.2 0.0
27/04:30am 9.4 5.5 9.3 99 0.1 NNW 20 32 11 17 1013.4 1009.3 0.0
27/04:00am 9.7 5.0 9.1 96 0.3 NNW 24 33 13 18 1013.4 1009.3 0.0
27/03:30am 10.1 5.1 9.5 96 0.3 NNW 26 33 14 18 1013.5 1009.4 0.0
27/03:00am 10.1 5.5 9.5 96 0.3 NNW 24 35 13 19 1013.6 1009.6 0.0
27/02:30am 10.2 6.9 9.4 95 0.4 NNW 17 26 9 14 1013.8 1009.7 0.0
27/02:00am 9.4 7.6 9.3 99 0.1 NNE 9 15 5 8 1014.0 1009.9 0.0
27/01:30am 9.4 6.8 9.3 99 0.1 NNE 13 17 7 9 1014.3 1010.3 0.0
27/01:00am 9.3 6.7 9.2 99 0.1 NE 13 17 7 9 1014.7 1010.6 0.0
27/12:30am 9.5 7.3 9.4 99 0.1 NNE 11 15 6 8 1014.9 1010.9 0.0
 
Date/Time
EDT
Tmp

°C
App
Tmp
°C
Dew
Point
°C
Rel
Hum
%
Delta-T

°C
Wind Press
QNH
hPa
Press
MSL
hPa
Rain
since
9 am
mm
Dir
 
Spd
km/h
Gust
km/h
Spd
kts
Gust
kts
26/11:30pm 9.3 7.1 9.2 99 0.1 NE 11 15 6 8 1015.0 1011.0 0.0
26/11:00pm 9.3 7.1 9.2 99 0.1 NE 11 15 6 8 1015.0 1011.0 0.0
26/10:30pm 9.7 7.9 9.6 99 0.1 N 9 11 5 6 1015.0 1011.0 0.0
26/10:00pm 10.0 8.9 9.9 99 0.1 NE 6 9 3 5 1014.9 1010.9 0.0
26/09:30pm 9.8 9.0 9.7 99 0.1 NNE 4 9 2 5 1014.6 1010.5 0.0
26/09:00pm 10.1 9.7 9.9 99 0.1 ENE 2 4 1 2 1014.3 1010.3 0.0
26/08:30pm 10.0 9.6 9.9 99 0.1 ESE 2 4 1 2 1013.9 1009.8 0.0
26/08:00pm 10.2 10.3 10.0 99 0.1 CALM 0 2 0 1 1013.4 1009.3 0.0
26/07:30pm 10.3 10.0 10.0 98 0.2 SW 2 6 1 3 1013.1 1009.0 0.0
26/07:00pm 10.7 8.8 10.5 99 0.1 SSW 11 15 6 8 1012.6 1008.5 0.0
26/06:30pm 11.1 9.3 9.5 90 0.9 SW 9 11 5 6 1012.4 1008.3 0.0
26/06:00pm 11.9 9.6 9.1 83 1.5 SSW 11 19 6 10 1012.2 1008.0 0.0
26/05:30pm 13.3 11.4 9.0 75 2.3 SW 9 19 5 10 1011.8 1007.7 0.0
26/05:00pm 13.0 9.8 8.3 73 2.5 SW 15 24 8 13 1011.9 1007.8 0.0
26/04:30pm 13.9 10.0 8.7 71 2.8 SW 19 28 10 15 1012.2 1008.0 0.0
26/04:00pm 14.0 10.1 8.8 71 2.8 SW 19 28 10 15 1012.2 1008.0 0.0
26/03:30pm 14.0 10.4 8.2 68 3.1 W 17 28 9 15 1012.4 1008.3 0.0
26/03:00pm 12.9 7.7 3.6 53 4.5 W 20 28 11 15 1012.4 1008.3 0.0
26/02:30pm 12.4 8.5 8.7 78 2.0 W 19 30 10 16 1013.0 1008.9 0.0
26/02:00pm 11.5 7.3 8.4 81 1.6 W 20 33 11 18 1013.1 1009.0 0.0
26/01:30pm 11.6 6.3 8.3 80 1.8 WNW 26 37 14 20 1013.1 1009.0 0.0
26/01:00pm 12.3 7.0 8.6 78 2.0 NW 26 39 14 21 1013.1 1009.0 0.0
26/12:30pm 12.3 7.3 9.7 84 1.4 NW 26 39 14 21 1013.4 1009.3 0.0
26/12:00pm 11.4 6.5 9.8 90 0.9 NW 26 37 14 20 1013.8 1009.7 0.0
26/11:30am 10.6 4.4 10.0 96 0.3 NNW 33 46 18 25 1014.0 1009.9 0.0
26/11:00am 10.5 5.9 9.6 94 0.5 NNW 24 35 13 19 1014.0 1009.9 0.0
26/10:30am 10.4 4.4 10.1 98 0.2 NNW 32 46 17 25 1013.9 1009.8 0.0
26/10:00am 10.2 4.1 9.6 96 0.3 NNW 32 44 17 24 1014.1 1010.0 0.0
26/09:30am 9.9 3.1 9.1 95 0.4 NNW 35 41 19 22 1013.8 1009.7 0.0
26/09:00am 9.4 3.2 9.3 99 0.1 NW 32 43 17 23 1013.9 1009.8 3.2
26/08:30am 9.2 3.7 9.1 99 0.1 NW 28 39 15 21 1014.0 1009.9 3.2
26/08:00am 9.1 2.6 9.0 99 0.1 NNW 33 44 18 24 1013.4 1009.3 3.2
26/07:30am 9.2 4.1 9.1 99 0.1 NW 26 35 14 19 1013.4 1009.3 3.2
26/07:00am 9.1 3.6 9.0 99 0.1 NW 28 43 15 23 1013.3 1009.2 3.2
26/06:30am 8.9 3.3 8.8 99 0.1 NW 28 41 15 22 1013.2 1009.1 3.2
26/06:00am 9.4 3.2 9.3 99 0.1 NW 32 44 17 24 1013.0 1008.9 3.2
26/05:30am 9.5 5.2 9.4 99 0.1 NW 22 35 12 19 1013.0 1008.9 3.2
26/05:00am 9.5 3.7 9.4 99 0.1 NW 30 44 16 24 1013.1 1009.0 3.2
26/04:30am 9.7 3.6 9.6 99 0.1 NNW 32 41 17 22 1013.2 1009.1 3.2
26/04:00am 9.9 4.6 9.8 99 0.1 NW 28 39 15 21 1013.5 1009.4 3.2
26/03:30am 10.0 3.7 9.7 98 0.2 NW 33 43 18 23 1013.6 1009.6 3.2
26/03:00am 10.0 2.9 9.5 97 0.3 NNW 37 44 20 24 1013.6 1009.6 3.0
26/02:30am 10.0 3.4 9.9 99 0.1 NNW 35 43 19 23 1014.1 1010.0 3.0
26/02:00am 9.6 3.8 9.5 99 0.1 NW 30 39 16 21 1014.3 1010.3 3.0
26/01:30am 9.8 5.6 9.7 99 0.1 NW 22 33 12 18 1015.0 1011.0 3.0
26/01:00am 9.7 4.9 8.9 95 0.4 NW 24 30 13 16 1015.1 1011.1 3.0
26/12:30am 9.6 4.8 9.0 96 0.3 NW 24 30 13 16 1015.1 1011.1 3.0
26/12:00am 9.3 5.2 8.5 95 0.4 WNW 20 28 11 15 1015.4 1011.3 3.0
 
Date/Time
EDT
Tmp

°C
App
Tmp
°C
Dew
Point
°C
Rel
Hum
%
Delta-T

°C
Wind Press
QNH
hPa
Press
MSL
hPa
Rain
since
9 am
mm
Dir
 
Spd
km/h
Gust
km/h
Spd
kts
Gust
kts
25/11:30pm 9.2 5.4 9.1 99 0.1 WNW 19 24 10 13 1015.6 1011.6 3.0
25/11:00pm 9.1 6.4 9.0 99 0.1 WNW 13 22 7 12 1015.9 1011.9 3.0
25/10:30pm 9.5 7.3 9.4 99 0.1 NW 11 19 6 10 1016.4 1012.4 3.0
25/10:00pm 9.4 7.6 9.3 99 0.1 NW 9 17 5 9 1016.6 1012.6 3.0
25/09:30pm 9.2 7.3 9.1 99 0.1 N 9 15 5 8 1016.6 1012.6 3.0
25/09:00pm 9.6 7.8 9.5 99 0.1 NNE 9 13 5 7 1016.5 1012.5 3.0
25/08:30pm 9.4 7.9 9.3 99 0.1 N 7 9 4 5 1016.5 1012.5 2.8
25/08:00pm 9.0 8.0 8.9 99 0.1 E 4 7 2 4 1016.5 1012.5 2.8
25/07:30pm 9.0 7.6 8.9 99 0.1 E 6 11 3 6 1016.6 1012.6 2.8
25/07:00pm 9.2 8.3 9.1 99 0.1 ENE 4 7 2 4 1016.6 1012.6 2.8
25/06:30pm 9.3 8.4 9.2 99 0.1 E 4 7 2 4 1017.0 1013.0 2.6
25/06:00pm 9.1 7.6 9.0 99 0.1 E 7 9 4 5 1017.1 1013.1 2.4
25/05:30pm 9.1 7.7 9.0 99 0.1 SE 6 7 3 4 1016.8 1012.8 2.2
25/05:00pm 9.8 8.4 9.7 99 0.1 NE 7 13 4 7 1017.2 1013.2 2.2
25/04:30pm 9.4 7.6 9.3 99 0.1 ENE 9 15 5 8 1017.6 1013.7 2.2
25/04:00pm 9.3 8.4 9.2 99 0.1 SE 4 9 2 5 1017.9 1013.9 2.2
25/03:30pm 9.3 7.4 9.2 99 0.1 E 9 17 5 9 1018.0 1014.0 1.6
25/03:00pm 9.3 7.8 9.2 99 0.1 ESE 7 13 4 7 1018.1 1014.1 1.6
25/02:30pm 9.3 7.4 9.2 99 0.1 E 9 13 5 7 1018.6 1014.6 1.6
25/02:00pm 9.2 7.9 9.1 99 0.1 ESE 6 9 3 5 1019.1 1015.2 1.6
25/01:30pm 9.3 8.0 9.2 99 0.1 ESE 6 9 3 5 1019.5 1015.5 1.6
25/01:00pm 9.2 8.3 9.1 99 0.1 NE 4 9 2 5 1019.6 1015.7 0.4
25/12:30pm 9.8 9.0 9.7 99 0.1 ENE 4 9 2 5 1019.8 1015.9 0.2
25/12:00pm 9.2 7.9 9.1 99 0.1 ENE 6 11 3 6 1020.2 1016.3 0.2
25/11:30am 8.6 6.6 8.5 99 0.1 SE 9 15 5 8 1020.3 1016.4 0.2
25/11:00am 9.2 7.7 9.1 99 0.1 E 7 11 4 6 1020.3 1016.4 0.0
25/10:30am 8.7 7.2 8.6 99 0.1 E 6 11 3 6 1020.4 1016.5 0.0
25/10:00am 8.2 6.1 8.1 99 0.1 ESE 9 13 5 7 1020.4 1016.5 0.0
25/09:30am 8.7 6.7 8.6 99 0.1 ENE 9 17 5 9 1020.5 1016.6 0.0
25/09:00am 8.2 5.7 8.1 99 0.1 NE 11 17 6 9 1020.5 1016.6 2.8
25/08:30am 7.8 5.6 7.7 99 0.1 NE 9 15 5 8 1020.5 1016.6 2.8
25/08:00am 7.8 5.2 7.7 99 0.1 NNE 11 19 6 10 1020.3 1016.4 2.6
25/07:30am 7.4 4.3 7.3 99 0.1 NNE 13 19 7 10 1020.2 1016.3 2.6
25/07:00am 7.4 4.3 7.3 99 0.1 NNE 13 17 7 9 1019.9 1016.0 2.6
25/06:30am 7.2 5.2 7.1 99 0.1 NE 7 11 4 6 1019.7 1015.8 2.6
25/06:00am 7.3 4.2 7.2 99 0.1 NE 13 19 7 10 1019.5 1015.5 2.6
25/05:30am 7.5 4.0 7.4 99 0.1 NNE 15 20 8 11 1019.2 1015.3 2.6
25/05:00am 7.2 4.8 7.1 99 0.1 ENE 9 11 5 6 1019.2 1015.3 2.6
25/04:30am 7.4 4.3 7.3 99 0.1 NE 13 17 7 9 1019.2 1015.3 2.4
25/04:00am 7.4 5.1 7.3 99 0.1 NE 9 13 5 7 1019.4 1015.4 2.4
25/03:30am 7.3 4.2 7.2 99 0.1 NE 13 19 7 10 1019.6 1015.7 2.4
25/03:00am 7.3 4.2 7.2 99 0.1 NE 13 19 7 10 1019.8 1015.9 2.2
25/02:30am 7.3 4.2 7.2 99 0.1 NE 13 19 7 10 1020.2 1016.3 2.2
25/02:00am 7.4 4.3 7.3 99 0.1 ENE 13 19 7 10 1020.4 1016.5 2.0
25/01:30am 7.5 4.4 7.4 99 0.1 NE 13 17 7 9 1020.6 1016.7 1.8
25/01:00am 7.5 3.7 7.4 99 0.1 ENE 17 24 9 13 1020.8 1017.0 1.6
25/12:30am 7.5 4.0 7.4 99 0.1 ENE 15 20 8 11 1021.0 1017.1 1.4
25/12:00am 7.6 4.2 7.5 99 0.1 NE 15 20 8 11 1021.3 1017.4 1.4
 
Date/Time
EDT
Tmp

°C
App
Tmp
°C
Dew
Point
°C
Rel
Hum
%
Delta-T

°C
Wind Press
QNH
hPa
Press
MSL
hPa
Rain
since
9 am
mm
Dir
 
Spd
km/h
Gust
km/h
Spd
kts
Gust
kts
24/11:30pm 7.5 4.4 7.4 99 0.1 NE 13 20 7 11 1021.6 1017.8 1.2
24/11:00pm 7.5 3.7 7.4 99 0.1 ENE 17 24 9 13 1021.5 1017.7 1.2

Latest Capital City Observations: Canberra | Sydney | Melbourne | Brisbane | Adelaide | Perth | Hobart | Darwin

Other Formats:

Comma delimited format used in spreadsheet applications
http://www.bom.gov.au/fwo/IDN60903/IDN60903.95909.axf

JavaScript Object Notation format (JSON) in row-major order
http://www.bom.gov.au/fwo/IDN60903/IDN60903.95909.json